Time;durP1;ratioP1;P1;durP2;ratioP2;P2;SDS_P1;SDS_P2;PMS_P1;PMS_P2;Temp;Humidity;BMP_temperature;BMP_pressure;BME280_temperature;BME280_humidity;BME280_pressure;Samples;Min_cycle;Max_cycle;Signal;HPM_P1;HPM_P2
2021/03/16 00:05:04;;;;;;;;;34.25;29.25;;;;;;;;11963153;29;8905;-53
2021/03/16 00:11:06;;;;;;;;;36.75;33.50;;;;;;;;11964413;29;8860;-51
2021/03/16 00:17:07;;;;;;;;;30.50;27.25;;;;;;;;11964958;29;9650;-50
2021/03/16 00:23:09;;;;;;;;;34.75;34.00;;;;;;;;11963306;29;8860;-51
2021/03/16 00:29:11;;;;;;;;;35.50;34.00;;;;;;;;11964351;29;8860;-49
2021/03/16 00:35:13;;;;;;;;;27.25;27.25;;;;;;;;11963418;29;8871;-49
2021/03/16 00:41:15;;;;;;;;;34.25;31.75;;;;;;;;11962478;29;8951;-51
2021/03/16 00:47:20;;;;;;;;;37.75;32.75;;;;;;;;11963822;29;8967;-51
2021/03/16 00:53:22;;;;;;;;;36.75;32.50;;;;;;;;11962445;29;9618;-49
2021/03/16 00:59:28;;;;;;;;;34.25;29.25;;;;;;;;11962261;29;8887;-51
2021/03/16 01:05:30;;;;;;;;;28.75;27.25;;;;;;;;11961473;29;8895;-52
2021/03/16 01:11:32;;;;;;;;;33.75;32.00;;;;;;;;11962522;29;8856;-48
2021/03/16 01:17:33;;;;;;;;;34.50;32.50;;;;;;;;11961740;29;8880;-50
2021/03/16 01:23:38;;;;;;;;;27.75;27.00;;;;;;;;11961200;29;8888;-51
2021/03/16 01:29:39;;;;;;;;;27.75;23.75;;;;;;;;11962949;29;8880;-52
2021/03/16 01:35:41;;;;;;;;;31.25;27.75;;;;;;;;11960848;29;8875;-52
2021/03/16 01:41:43;;;;;;;;;30.00;27.00;;;;;;;;11960811;29;8868;-52
2021/03/16 01:47:47;;;;;;;;;27.75;25.25;;;;;;;;11962012;29;8884;-51
2021/03/16 01:53:48;;;;;;;;;29.00;28.25;;;;;;;;11965794;29;8860;-52
2021/03/16 01:59:58;;;;;;;;;25.50;23.50;;;;;;;;11970312;29;8868;-51
2021/03/16 02:06:26;;;;;;;;;26.75;18.75;;;;;;;;11967876;29;8904;-52
2021/03/16 02:13:01;;;;;;;;;23.00;21.50;;;;;;;;11969558;29;8864;-48
2021/03/16 02:19:56;;;;;;;;;18.00;16.75;;;;;;;;11967755;29;8875;-51
2021/03/16 02:26:40;;;;;;;;;19.50;18.50;;;;;;;;11969350;29;8880;-51
2021/03/16 02:33:04;;;;;;;;;17.00;17.00;;;;;;;;11967546;29;8872;-51
2021/03/16 02:39:26;;;;;;;;;24.00;19.75;;;;;;;;11968238;29;9594;-51
2021/03/16 02:45:48;;;;;;;;;27.50;22.75;;;;;;;;11966720;29;8868;-50
2021/03/16 02:52:11;;;;;;;;;24.00;20.25;;;;;;;;11968780;29;9611;-48
2021/03/16 02:58:33;;;;;;;;;17.00;17.00;;;;;;;;11966573;29;8976;-51
2021/03/16 03:04:53;;;;;;;;;24.00;19.50;;;;;;;;11966449;29;8912;-49
2021/03/16 03:11:14;;;;;;;;;21.50;21.50;;;;;;;;11965999;29;8984;-51
2021/03/16 03:17:35;;;;;;;;;34.50;28.25;;;;;;;;11967299;29;8864;-48
2021/03/16 03:24:12;;;;;;;;;26.75;25.50;;;;;;;;11965214;29;8869;-48
2021/03/16 03:30:33;;;;;;;;;34.50;29.25;;;;;;;;11966884;29;8860;-51
2021/03/16 03:36:57;;;;;;;;;32.25;30.50;;;;;;;;11964934;29;9581;-48
2021/03/16 03:43:19;;;;;;;;;34.25;31.25;;;;;;;;11965384;29;8848;-48
2021/03/16 03:49:42;;;;;;;;;30.00;27.75;;;;;;;;11965087;29;8991;-51
2021/03/16 03:56:02;;;;;;;;;32.00;30.00;;;;;;;;11965610;29;9601;-50
2021/03/16 04:02:22;;;;;;;;;29.25;29.25;;;;;;;;12409967;24;9000;-49
2021/03/16 04:08:43;;;;;;;;;35.00;33.00;;;;;;;;12054226;29;8877;-48
2021/03/16 04:15:07;;;;;;;;;36.75;33.25;;;;;;;;12054698;29;8857;-52
2021/03/16 04:21:28;;;;;;;;;33.75;33.25;;;;;;;;12054284;29;8987;-48
2021/03/16 04:27:48;;;;;;;;;33.50;26.75;;;;;;;;12054292;29;8885;-52
2021/03/16 04:34:08;;;;;;;;;35.50;31.50;;;;;;;;12054530;29;8896;-48
2021/03/16 04:40:28;;;;;;;;;31.75;30.25;;;;;;;;12053446;29;8893;-48
2021/03/16 04:46:48;;;;;;;;;31.50;29.25;;;;;;;;12054755;29;9022;-50
2021/03/16 04:53:08;;;;;;;;;33.25;29.00;;;;;;;;12052898;29;8881;-48
2021/03/16 04:59:28;;;;;;;;;27.75;25.00;;;;;;;;12054470;29;9647;-54
2021/03/16 05:05:49;;;;;;;;;29.00;26.75;;;;;;;;12035679;29;8866;-53
2021/03/16 05:12:09;;;;;;;;;25.75;25.25;;;;;;;;12053613;29;9560;-51
2021/03/16 05:18:29;;;;;;;;;29.25;28.50;;;;;;;;12052544;29;8849;-50
2021/03/16 05:24:49;;;;;;;;;26.25;25.00;;;;;;;;12053945;29;8861;-52
2021/03/16 05:31:09;;;;;;;;;27.25;25.25;;;;;;;;12059972;29;8877;-55
2021/03/16 05:37:29;;;;;;;;;24.00;24.00;;;;;;;;12035747;29;8853;-53
2021/03/16 05:43:50;;;;;;;;;20.00;20.00;;;;;;;;12060540;29;8861;-51
2021/03/16 05:50:11;;;;;;;;;25.75;23.75;;;;;;;;12060596;29;8861;-49
2021/03/16 05:56:32;;;;;;;;;21.50;20.00;;;;;;;;12046520;29;8864;-51
2021/03/16 06:02:54;;;;;;;;;20.75;19.00;;;;;;;;12013976;29;8900;-50
2021/03/16 06:09:14;;;;;;;;;14.25;13.00;;;;;;;;12014698;29;8867;-50
2021/03/16 06:15:33;;;;;;;;;20.75;18.50;;;;;;;;12047596;29;9607;-52
2021/03/16 06:22:01;;;;;;;;;22.50;18.25;;;;;;;;12038842;29;8867;-52
2021/03/16 06:28:33;;;;;;;;;18.00;17.00;;;;;;;;12013771;29;8875;-50
2021/03/16 06:35:00;;;;;;;;;21.75;18.00;;;;;;;;12013838;29;8864;-50
2021/03/16 06:41:22;;;;;;;;;22.50;21.00;;;;;;;;12011715;29;8879;-53
2021/03/16 06:47:42;;;;;;;;;22.00;19.50;;;;;;;;12013134;29;8872;-52
2021/03/16 06:54:09;;;;;;;;;19.50;16.00;;;;;;;;12012399;29;8848;-53
2021/03/16 07:00:29;;;;;;;;;24.50;21.00;;;;;;;;12053232;29;8873;-53
2021/03/16 07:06:50;;;;;;;;;16.25;13.50;;;;;;;;12025467;29;9118;-55
2021/03/16 07:13:11;;;;;;;;;12.50;12.50;;;;;;;;12052011;29;8883;-52
2021/03/16 07:19:33;;;;;;;;;16.50;16.50;;;;;;;;12037016;29;8856;-55
2021/03/16 07:25:55;;;;;;;;;43.75;38.50;;;;;;;;12019226;29;8861;-54
2021/03/16 07:32:16;;;;;;;;;11.00;11.00;;;;;;;;12021061;29;8875;-52
2021/03/16 07:38:40;;;;;;;;;13.00;13.00;;;;;;;;12027543;29;8893;-55
2021/03/16 07:45:00;;;;;;;;;17.25;13.25;;;;;;;;12030092;29;8957;-54
2021/03/16 07:51:21;;;;;;;;;20.50;20.50;;;;;;;;12045876;29;8863;-55
2021/03/16 07:57:41;;;;;;;;;11.25;11.25;;;;;;;;12048599;29;8869;-52
2021/03/16 08:04:13;;;;;;;;;16.50;16.50;;;;;;;;12022799;29;8871;-53
2021/03/16 08:10:33;;;;;;;;;22.50;22.50;;;;;;;;12051519;29;8872;-55
2021/03/16 08:16:54;;;;;;;;;25.00;21.25;;;;;;;;12030455;29;8857;-55
2021/03/16 08:23:14;;;;;;;;;26.75;25.25;;;;;;;;12048775;29;9791;-56
2021/03/16 08:29:35;;;;;;;;;23.00;22.75;;;;;;;;12046523;29;8861;-55
2021/03/16 08:35:57;;;;;;;;;18.00;17.00;;;;;;;;12042125;29;8873;-55
2021/03/16 08:42:20;;;;;;;;;24.00;22.25;;;;;;;;12051362;29;8880;-54
2021/03/16 08:48:42;;;;;;;;;43.50;38.00;;;;;;;;12013232;29;9584;-55
2021/03/16 08:55:03;;;;;;;;;20.50;18.50;;;;;;;;12030476;29;8869;-55
2021/03/16 09:01:24;;;;;;;;;22.75;19.00;;;;;;;;12046054;29;8871;-53
2021/03/16 09:07:45;;;;;;;;;16.00;16.00;;;;;;;;12033194;29;8869;-56
2021/03/16 09:14:15;;;;;;;;;23.50;22.50;;;;;;;;12044388;29;8864;-55
2021/03/16 09:20:37;;;;;;;;;17.75;17.75;;;;;;;;12006451;29;8879;-56
2021/03/16 09:27:00;;;;;;;;;34.50;33.00;;;;;;;;12050537;29;8847;-54
2021/03/16 09:33:25;;;;;;;;;13.25;13.25;;;;;;;;12061004;29;8880;-52
2021/03/16 09:39:52;;;;;;;;;20.25;18.00;;;;;;;;12018439;29;8869;-54
2021/03/16 09:46:14;;;;;;;;;19.00;17.00;;;;;;;;12067429;29;8883;-54
2021/03/16 09:52:16;;;;;;;;;17.50;15.75;;;;;;;;12075621;29;8865;-53
2021/03/16 09:58:25;;;;;;;;;19.75;17.00;;;;;;;;12053360;29;8932;-54
2021/03/16 10:04:27;;;;;;;;;18.25;17.50;;;;;;;;12031747;29;8898;-50
2021/03/16 10:10:33;;;;;;;;;11.00;10.50;;;;;;;;12018804;29;9659;-51
2021/03/16 10:16:35;;;;;;;;;16.75;15.75;;;;;;;;12056626;29;8873;-51
2021/03/16 10:22:37;;;;;;;;;36.25;33.00;;;;;;;;12050912;29;8884;-53
2021/03/16 10:28:43;;;;;;;;;24.25;19.00;;;;;;;;12057998;29;8978;-52
2021/03/16 10:34:45;;;;;;;;;25.00;21.00;;;;;;;;12056193;29;8872;-53
2021/03/16 10:40:46;;;;;;;;;15.75;14.25;;;;;;;;12030685;29;8854;-53
2021/03/16 10:46:47;;;;;;;;;17.25;13.25;;;;;;;;12043897;29;8871;-53
2021/03/16 10:52:49;;;;;;;;;17.75;17.50;;;;;;;;12030916;29;8860;-55
2021/03/16 10:58:51;;;;;;;;;16.25;15.25;;;;;;;;12016214;29;8882;-49
2021/03/16 11:04:53;;;;;;;;;22.75;20.75;;;;;;;;12046554;29;9015;-53
2021/03/16 11:10:55;;;;;;;;;27.50;23.50;;;;;;;;12044285;29;8874;-55
2021/03/16 11:16:56;;;;;;;;;12.75;12.75;;;;;;;;12012835;29;8868;-53
2021/03/16 11:22:58;;;;;;;;;19.25;19.25;;;;;;;;12050274;29;8913;-49
2021/03/16 11:29:02;;;;;;;;;25.00;24.25;;;;;;;;12010752;29;9003;-54
2021/03/16 11:35:04;;;;;;;;;14.25;14.25;;;;;;;;12026244;29;8930;-55
2021/03/16 11:41:24;;;;;;;;;16.25;13.25;;;;;;;;12010758;29;8903;-56
2021/03/16 11:47:44;;;;;;;;;19.00;16.75;;;;;;;;12033584;29;8868;-53
2021/03/16 11:54:04;;;;;;;;;16.50;16.00;;;;;;;;12020594;29;8856;-50
2021/03/16 12:00:24;;;;;;;;;21.50;20.00;;;;;;;;12022905;29;8873;-51
2021/03/16 12:06:44;;;;;;;;;24.50;24.25;;;;;;;;12051655;29;8881;-51
2021/03/16 12:13:04;;;;;;;;;17.25;17.25;;;;;;;;12038522;29;8872;-55
2021/03/16 12:19:24;;;;;;;;;13.50;12.75;;;;;;;;12050530;29;8853;-57
2021/03/16 12:25:45;;;;;;;;;24.50;23.50;;;;;;;;12052283;29;8862;-53
2021/03/16 12:32:07;;;;;;;;;28.50;27.00;;;;;;;;12053080;29;8866;-54
2021/03/16 12:38:32;;;;;;;;;26.00;18.00;;;;;;;;12032559;29;8880;-53
2021/03/16 12:44:53;;;;;;;;;17.00;16.00;;;;;;;;12049429;29;8980;-55
2021/03/16 12:51:13;;;;;;;;;23.75;21.00;;;;;;;;12022318;29;8856;-51
2021/03/16 12:57:33;;;;;;;;;18.00;17.25;;;;;;;;12012478;29;8872;-54
2021/03/16 13:03:53;;;;;;;;;21.50;21.00;;;;;;;;12049316;29;8884;-56
2021/03/16 13:10:13;;;;;;;;;25.75;25.00;;;;;;;;12013645;29;8864;-54
2021/03/16 13:16:34;;;;;;;;;23.50;21.25;;;;;;;;12044638;29;8856;-56
2021/03/16 13:22:54;;;;;;;;;28.00;24.00;;;;;;;;12006952;29;8864;-52
2021/03/16 13:29:14;;;;;;;;;24.75;22.25;;;;;;;;12008497;29;8856;-56
2021/03/16 13:35:34;;;;;;;;;28.75;25.50;;;;;;;;12006290;29;8918;-55
2021/03/16 13:41:54;;;;;;;;;29.00;27.50;;;;;;;;12005363;29;8872;-57
2021/03/16 13:48:14;;;;;;;;;27.50;24.75;;;;;;;;12006898;29;8868;-55
2021/03/16 13:54:34;;;;;;;;;28.25;25.00;;;;;;;;12014455;29;8872;-53
2021/03/16 14:00:54;;;;;;;;;29.00;23.50;;;;;;;;12027626;29;8903;-55
2021/03/16 14:07:15;;;;;;;;;22.50;21.25;;;;;;;;12013975;29;8904;-55
2021/03/16 14:13:35;;;;;;;;;24.25;23.50;;;;;;;;12033410;29;8879;-55
2021/03/16 14:20:07;;;;;;;;;26.25;23.25;;;;;;;;12039318;29;8872;-53
2021/03/16 14:26:27;;;;;;;;;32.75;27.25;;;;;;;;12059791;29;8853;-55
2021/03/16 14:32:47;;;;;;;;;23.25;23.25;;;;;;;;12036077;29;8873;-54
2021/03/16 14:39:07;;;;;;;;;28.00;25.25;;;;;;;;12013967;29;8927;-53
2021/03/16 14:45:26;;;;;;;;;24.25;23.75;;;;;;;;12013751;29;9571;-57
2021/03/16 14:51:46;;;;;;;;;23.25;22.75;;;;;;;;12014931;29;8860;-53
2021/03/16 14:58:07;;;;;;;;;29.75;27.00;;;;;;;;12017255;29;8864;-52
2021/03/16 15:04:29;;;;;;;;;28.50;26.00;;;;;;;;12024067;29;8876;-54
2021/03/16 15:10:51;;;;;;;;;33.00;29.00;;;;;;;;12012369;29;8880;-55
2021/03/16 15:17:13;;;;;;;;;30.25;27.25;;;;;;;;12012657;29;8859;-51
2021/03/16 15:23:34;;;;;;;;;22.00;21.50;;;;;;;;12011535;29;8867;-54
2021/03/16 15:29:54;;;;;;;;;27.00;26.00;;;;;;;;12011463;29;8970;-55
2021/03/16 15:36:14;;;;;;;;;19.00;19.00;;;;;;;;12037277;29;8988;-57
2021/03/16 15:42:34;;;;;;;;;24.00;24.00;;;;;;;;12055599;29;9396;-56
2021/03/16 15:48:54;;;;;;;;;18.25;15.25;;;;;;;;12056436;29;8845;-53
2021/03/16 15:55:15;;;;;;;;;18.75;16.50;;;;;;;;12036425;29;9631;-58
2021/03/16 16:01:35;;;;;;;;;25.25;21.00;;;;;;;;12031303;29;9626;-53
2021/03/16 16:07:55;;;;;;;;;23.75;23.25;;;;;;;;12008909;29;8884;-55
2021/03/16 16:14:15;;;;;;;;;22.25;18.25;;;;;;;;12023797;29;8876;-53
2021/03/16 16:20:35;;;;;;;;;19.25;18.25;;;;;;;;12008583;29;8879;-54
2021/03/16 16:26:55;;;;;;;;;20.50;19.00;;;;;;;;12009872;29;8856;-54
2021/03/16 16:33:16;;;;;;;;;16.50;16.50;;;;;;;;12007999;29;8872;-54
2021/03/16 16:39:38;;;;;;;;;17.25;16.00;;;;;;;;12009318;29;8860;-54
2021/03/16 16:46:01;;;;;;;;;20.50;19.75;;;;;;;;12008021;29;8922;-53
2021/03/16 16:52:22;;;;;;;;;21.00;17.50;;;;;;;;12022696;29;8849;-49
2021/03/16 16:58:42;;;;;;;;;22.75;21.50;;;;;;;;12048225;29;8863;-52
2021/03/16 17:05:03;;;;;;;;;20.50;19.00;;;;;;;;12037851;29;8896;-50
2021/03/16 17:11:23;;;;;;;;;20.75;18.75;;;;;;;;12007285;29;8852;-51
2021/03/16 17:17:43;;;;;;;;;19.75;16.00;;;;;;;;12007712;29;8863;-49
2021/03/16 17:24:04;;;;;;;;;15.75;13.25;;;;;;;;12010650;29;8856;-51
2021/03/16 17:30:23;;;;;;;;;12.75;12.00;;;;;;;;12016327;29;8863;-52
2021/03/16 17:36:43;;;;;;;;;13.00;13.00;;;;;;;;12043463;29;8865;-57
2021/03/16 17:43:04;;;;;;;;;24.50;16.00;;;;;;;;12060853;29;8877;-55
2021/03/16 17:49:24;;;;;;;;;17.50;15.50;;;;;;;;12062059;29;8987;-55
2021/03/16 17:55:44;;;;;;;;;23.25;21.25;;;;;;;;12060281;29;8857;-54
2021/03/16 18:02:03;;;;;;;;;28.75;25.00;;;;;;;;12059700;29;8873;-55
2021/03/16 18:08:24;;;;;;;;;29.00;26.00;;;;;;;;12060044;29;8861;-52
2021/03/16 18:14:44;;;;;;;;;24.50;23.75;;;;;;;;12061418;29;9524;-53
2021/03/16 18:21:05;;;;;;;;;29.00;27.25;;;;;;;;12058567;29;9637;-49
2021/03/16 18:27:25;;;;;;;;;28.25;22.00;;;;;;;;12060375;29;8861;-52
2021/03/16 18:33:45;;;;;;;;;25.75;23.25;;;;;;;;12058454;29;8865;-53
2021/03/16 18:40:06;;;;;;;;;19.50;18.50;;;;;;;;12059424;29;8869;-53
2021/03/16 18:46:26;;;;;;;;;26.50;21.00;;;;;;;;12058371;29;8849;-51
2021/03/16 18:52:46;;;;;;;;;23.75;20.50;;;;;;;;12060117;29;8857;-53
2021/03/16 18:59:06;;;;;;;;;11.25;10.75;;;;;;;;12057313;29;8904;-55
2021/03/16 19:05:26;;;;;;;;;10.50;10.50;;;;;;;;12056647;29;8881;-55
2021/03/16 19:11:46;;;;;;;;;13.50;12.25;;;;;;;;12057262;29;8854;-54
2021/03/16 19:18:07;;;;;;;;;14.00;12.00;;;;;;;;12057207;29;8858;-50
2021/03/16 19:24:27;;;;;;;;;17.25;12.50;;;;;;;;12057160;29;8857;-52
2021/03/16 19:30:47;;;;;;;;;12.75;12.75;;;;;;;;12055959;29;9459;-54
2021/03/16 19:37:07;;;;;;;;;15.00;12.75;;;;;;;;12057453;29;8968;-53
2021/03/16 19:43:28;;;;;;;;;11.75;11.00;;;;;;;;12055298;29;8853;-52
2021/03/16 19:49:47;;;;;;;;;9.25;9.25;;;;;;;;12055628;29;9007;-49
2021/03/16 19:56:07;;;;;;;;;9.25;9.25;;;;;;;;12055037;29;8861;-52
2021/03/16 20:02:27;;;;;;;;;9.00;9.00;;;;;;;;12028505;29;8872;-51
2021/03/16 20:08:47;;;;;;;;;11.25;9.00;;;;;;;;12009060;29;8872;-53
2021/03/16 20:15:09;;;;;;;;;14.25;12.00;;;;;;;;12038744;29;8861;-55
2021/03/16 20:21:30;;;;;;;;;9.00;9.00;;;;;;;;12054039;29;9461;-51
2021/03/16 20:27:50;;;;;;;;;15.25;14.00;;;;;;;;12054880;29;8849;-53
2021/03/16 20:34:10;;;;;;;;;12.00;11.25;;;;;;;;12053020;29;8849;-57
2021/03/16 20:40:32;;;;;;;;;12.75;11.50;;;;;;;;12054317;29;8976;-52
2021/03/16 20:46:54;;;;;;;;;16.00;14.50;;;;;;;;12052927;29;8853;-52
2021/03/16 20:53:14;;;;;;;;;11.75;10.50;;;;;;;;12053466;29;8845;-50
2021/03/16 20:59:34;;;;;;;;;8.25;8.25;;;;;;;;12048865;29;8880;-52
2021/03/16 21:05:54;;;;;;;;;9.50;9.00;;;;;;;;12007220;29;8887;-51
2021/03/16 21:12:16;;;;;;;;;11.50;9.25;;;;;;;;12041237;29;8861;-52
2021/03/16 21:18:36;;;;;;;;;15.25;15.25;;;;;;;;12052041;29;8865;-50
2021/03/16 21:24:56;;;;;;;;;11.50;11.50;;;;;;;;12053439;29;8837;-49
2021/03/16 21:31:16;;;;;;;;;15.75;15.25;;;;;;;;12051738;29;8861;-56
2021/03/16 21:37:36;;;;;;;;;15.00;13.00;;;;;;;;12053171;29;8853;-52
2021/03/16 21:43:56;;;;;;;;;14.25;14.25;;;;;;;;12051444;29;8853;-54
2021/03/16 21:50:17;;;;;;;;;11.25;10.25;;;;;;;;12053217;29;8849;-52
2021/03/16 21:56:37;;;;;;;;;17.75;14.75;;;;;;;;12051206;29;8861;-51
2021/03/16 22:02:57;;;;;;;;;14.50;14.00;;;;;;;;12012745;29;8887;-53
2021/03/16 22:09:17;;;;;;;;;14.75;13.00;;;;;;;;12008121;29;8856;-51
2021/03/16 22:15:37;;;;;;;;;12.00;12.00;;;;;;;;12044198;29;8841;-52
2021/03/16 22:21:57;;;;;;;;;11.00;11.00;;;;;;;;12058966;29;8860;-50
2021/03/16 22:28:17;;;;;;;;;10.00;10.00;;;;;;;;12059390;29;8841;-51
2021/03/16 22:34:37;;;;;;;;;12.50;11.50;;;;;;;;12058579;29;8861;-51
2021/03/16 22:40:57;;;;;;;;;11.00;11.00;;;;;;;;12058490;29;8873;-51
2021/03/16 22:47:17;;;;;;;;;11.25;10.25;;;;;;;;12058822;29;8987;-50
2021/03/16 22:53:37;;;;;;;;;9.50;9.50;;;;;;;;12058473;29;8861;-51
2021/03/16 22:59:57;;;;;;;;;10.50;8.00;;;;;;;;12043407;29;8986;-49
2021/03/16 23:06:17;;;;;;;;;9.25;9.25;;;;;;;;12011857;29;8884;-51
2021/03/16 23:12:37;;;;;;;;;7.25;7.00;;;;;;;;12013050;29;8860;-53
2021/03/16 23:18:57;;;;;;;;;7.50;7.50;;;;;;;;12011603;29;8864;-51
2021/03/16 23:25:26;;;;;;;;;8.00;8.00;;;;;;;;12012640;29;9450;-50
2021/03/16 23:31:45;;;;;;;;;7.25;7.25;;;;;;;;12011097;29;8855;-52
2021/03/16 23:38:07;;;;;;;;;9.25;9.25;;;;;;;;12012802;29;8847;-54
2021/03/16 23:44:27;;;;;;;;;11.75;7.25;;;;;;;;12010140;29;8860;-49
2021/03/16 23:50:51;;;;;;;;;10.00;9.00;;;;;;;;12037883;29;8857;-54
2021/03/16 23:57:12;;;;;;;;;11.00;7.75;;;;;;;;12054983;29;8868;-49
